Weather observations for the past three days for
Air Force Academy
Metric (Imperial)
Date Time (mdt) Wind (kph) Vis. (km) Weather Sky Cond. Temperature (ºC) Relative Humidity Wind Chill (°C) Heat Index (°C) Pressure Precipitation (cm)
Air Dwpt 6 hour altimeter (cm) sea level (mb) 1 hr 3 hr 6 hr
Max. Min.
09 08:55 NW 9 16.09 Fair CLR 15.6 0.6 36% 76.23 1009.2
09 07:55 NW 11 16.09 A Few Clouds FEW200 10 4.2 68% 9 76.23 1010.4
09 06:55 NE 9 16.09 Fair CLR 6.4 2.5 76% 5 76.2 1010.6
09 05:55 N 17 16.09 Fair CLR 3.6 0.5 10.7 3.6 80% 0 76.17 1010.2
09 04:55 N 15 16.09 Fair CLR 4.4 0.9 78% 1 76.17 1010.2
09 03:55 N 15 16.09 Fair CLR 4.9 1.2 77% 2 76.17 1009.7
09 02:55 N 11 16.09 Fair CLR 5 1.5 78% 3 76.2 1010.6
09 01:55 N 11 16.09 Fair CLR 6.9 1.8 70% 5 76.2 1010.0
09 00:55 N 11 16.09 Fair CLR 6.4 2.1 74% 4 76.28 1011.6
08 23:55 N 6 16.09 Fair CLR 9.6 2.2 19.4 9.6 60% 76.3 1011.4
08 22:55 Calm 16.09 A Few Clouds FEW110 11.1 2.7 57% 76.3 1011.4
08 21:55 S 11 16.09 Partly Cloudy SCT110 12.9 2.2 48% 76.33 1011.8
08 20:55 SE 11 16.09 Mostly Cloudy SCT070 BKN090 14 2.9 47% 76.25 1011.3
08 19:55 SE 17 16.09 Mostly Cloudy BKN080 16.1 2.5 40% 76.2 1010.6
08 18:55 E 19 16.09 Showers in Vicinity SCT070 BKN100 17.4 1.4 34% 76.15 1009.9
08 17:55 SE 9 G 28 16.09 Mostly Cloudy SCT070 BKN250 19.3 0.8 20.7 16.5 29% 76.15 1009.9
08 16:55 E 24 G 37 16.09 Mostly Cloudy SCT070 BKN200 19.7 1.2 29% 76.15 1009.9
08 15:55 S 17 16.09 Partly Cloudy SCT075 20.4 0.8 27% 76.15 1009.3
08 14:55 S 15 16.09 Mostly Cloudy BKN075 BKN090 19.6 0.6 28% 76.2 1009.4
08 13:55 Calm 16.09 Partly Cloudy SCT070 18.8 -0.1 28% 76.23 1009.2
08 12:55 N 13 16.09 Fair CLR 18.1 -0.7 28% 76.25 1010.1
08 11:55 W 6 16.09 A Few Clouds FEW090 16.3 -0.9 16.7 4.8 31% 76.3 1010.8
08 10:55 N 13 16.09 Fair CLR 15.5 1.2 38% 76.33 1011.8
08 09:55 N 24 16.09 Fair CLR 12.3 2.7 52% 76.35 1012.7
08 08:55 N 24 16.09 A Few Clouds FEW010 10.1 3.1 62% 76.4 1013.4
08 07:55 N 31 16.09 Partly Cloudy SCT010 8.5 3.1 69% 5 76.4 1012.8
08 06:55 N 6 16.09 Fair CLR 6.1 0.8 69% 76.25 1011.3
08 05:55 N 19 16.09 Fair CLR 5 0.2 13.3 4.4 71% 2 76.23 1010.9
08 04:55 N 9 16.09 Fair CLR 4.9 -0.1 70% 3 76.2 1010.6
08 03:55 NE 6 16.09 Fair CLR 5.7 0.3 69% 76.17 1009.7
08 02:55 NW 6 16.09 A Few Clouds FEW110 7.8 0.5 60% 76.2 1010.0
08 01:55 N 19 16.09 Mostly Cloudy SCT095 BKN120 10.3 -1.1 45% 76.25 1010.1
08 00:55 NW 13 16.09 Overcast OVC110 10.9 0 47% 76.25 1010.1
07 23:55 NE 7 16.09 Overcast OVC130 12.1 -0.8 19.2 10.8 41% 76.23 1009.8
07 22:55 NE 11 16.09 Mostly Cloudy BKN190 10.8 0.2 48% 76.23 1010.4
07 21:55 N 13 16.09 Overcast OVC100 12.6 -1 39% 76.25 1010.7
07 20:55 N 13 16.09 Overcast BKN100 OVC120 13.8 -2.2 33% 76.17 1009.7
07 19:55 NW 9 16.09 Mostly Cloudy BKN120 16.4 -4.2 24% 76.12 1009.5
07 18:55 N 9 16.09 Mostly Cloudy BKN100 17.7 -5.6 20% 76.1 1009.7
07 17:55 W 17 G 28 16.09 Mostly Cloudy SCT110 BKN200 19.3 -6.4 20.1 16.2 17% 76.1 1010.9
07 16:55 NW 28 G 35 16.09 Mostly Cloudy BKN100 19.5 -6.2 17% 76.1 1010.9
07 15:55 NW 22 16.09 Fair CLR 19.7 -6.8 16% 76.12 1011.9
07 14:55 N 20 G 31 16.09 Fair CLR 18.6 -4.2 21% 76.17 1012.6
07 13:55 N 9 G 28 16.09 Fair CLR 17.5 -3.9 23% 76.25 1013.7
07 12:55 N 15 G 43 16.09 Partly Cloudy SCT190 17.6 -5 21% 76.3 1014.4
07 11:55 W 6 16.09 Fair CLR 16.2 -8.2 16.5 -0.7 18% 76.3 1015.0
07 10:55 S 11 16.09 Fair CLR 15.1 -8.4 19% 76.38 1015.4
07 09:55 W 20 16.09 Fair CLR 13.6 -6.1 25% 76.4 1016.4
07 08:55 N 13 G 37 16.09 Fair CLR 11.8 -6.1 28% 76.4 1017.0
07 07:55 NE 7 16.09 Fair CLR 8.6 -5.6 36% 8 76.43 1018.0
07 06:55 NE 9 16.09 Fair CLR 3.7 -6 50% 2 76.38 1017.9
07 05:55 NE 15 16.09 A Few Clouds FEW150 -0.9 -6.3 0.9 -3.5 67% -5 76.35 1018.8
07 04:55 N 7 16.09 Fair CLR -1.8 -6.6 70% -4 76.38 1019.8
07 03:55 NE 11 16.09 Fair CLR -3.1 -5.4 84% -7 76.38 1020.4
07 02:55 N 15 16.09 Fair CLR -2.7 -4.4 88% -7 76.43 1021.7
07 01:55 N 17 16.09 Fair CLR -2.7 -4 91% -8 76.45 1022.1
07 00:55 N 6 16.09 Fair CLR -1.7 -3.3 89% 76.48 1021.8
06 23:55 Calm 16.09 A Few Clouds FEW007 -2.2 -3.8 4.9 -2.3 89% 76.48 1022.4
06 22:55 SE 6 16.09 Partly Cloudy SCT007 0 -1.6 89% 76.45 1021.5
06 21:55 Calm 16.09 Fair CLR 0.5 -2.6 80% 76.45 1021.5
06 20:55 S 9 16.09 Fair CLR 0.7 -2.5 79% -2 76.43 1021.1
06 19:55 S 17 16.09 Fair CLR 1.9 -2.8 71% -2 76.4 1020.1
06 18:55 S 19 16.09 A Few Clouds FEW025 FEW070 4 -2.8 62% 0 76.4 1020.1
06 17:55 W 9 16.09 Mostly Cloudy BKN029 BKN075 4.3 -3.5 4.6 0.4 57% 2 76.38 1019.8
06 16:55 W 7 16.09 Overcast OVC030 3.1 -3.9 60% 1 76.4 1020.1
06 15:55 NW 15 16.09 Overcast FEW020 OVC032 2.7 -3.6 64% -1 76.43 1020.5
06 14:55 N 22 16.09 Light Snow OVC019 1.6 -2.9 72% -3 76.43 1020.5
06 13:55 N 19 16.09 Mostly Cloudy SCT016 BKN021 BKN026 BKN039 1.3 -3.6 70% -3 76.43 1021.1
06 12:55 N 22 11.27 Light Snow BKN018 BKN034 1.6 -3.5 69% -3 76.4 1020.1
06 11:55 NW 9 9.66 Light Snow FEW009 OVC044 0.5 -2.9 0.5 -1.5 78% -2 76.43 1021.1 0.18
06 10:55 N 9 1.61 Light Snow Fog/Mist FEW005 OVC015 -0.6 -2.5 87% -3 76.4 1020.8
06 09:55 N 15 1.21 Light Snow Fog/Mist FEW002 OVC016 -0.4 -2.5 86% -4 76.35 1020.1
Date Time (mdt) Wind (kph) Vis. (km) Weather Sky Cond. Air Dwpt Max. Min. Relative Humidity Wind Chill (°C) Heat Index (°C) altimeter (cm) sea level (mb) 1 hr 3 hr 6 hr
6 hour
Temperature (ºC) Pressure Precipitation (cm)